Time;durP1;ratioP1;P1;durP2;ratioP2;P2;SDS_P1;SDS_P2;PMS_P1;PMS_P2;Temp;Humidity;BMP_temperature;BMP_pressure;BME280_temperature;BME280_humidity;BME280_pressure;Samples;Min_cycle;Max_cycle;Signal;HPM_P1;HPM_P2
2023/10/08 01:40:06;;;;;;;35.38;12.00;;;;;;;17.90;100.00;101822.81;3989715;26;20052;-95
2023/10/08 01:43:22;;;;;;;44.95;12.63;;;;;;;17.92;100.00;101818.78;5066900;28;20519;-93
2023/10/08 01:46:25;;;;;;;38.53;12.10;;;;;;;18.13;100.00;101818.78;5064414;28;20424;-93
2023/10/08 01:49:13;;;;;;;50.58;12.93;;;;;;;18.15;100.00;101838.31;5066259;28;20040;-93
2023/10/08 01:55:17;;;;;;;;;;;;;;;;;;;;;
2023/10/08 01:58:11;;;;;;;53.42;16.85;;;;;;;18.19;100.00;101831.28;5081830;28;20032;-93
2023/10/08 02:04:38;;;;;;;50.40;14.10;;;;;;;18.60;100.00;101845.63;5068816;28;20486;-96
2023/10/08 02:07:07;;;;;;;58.47;14.95;;;;;;;18.64;100.00;101852.13;5063632;28;20027;-93
2023/10/08 02:10:06;;;;;;;54.20;15.48;;;;;;;18.79;100.00;101850.53;5047267;28;20126;-92
2023/10/08 02:13:32;;;;;;;49.70;12.60;;;;;;;18.89;100.00;101826.81;5082049;28;20039;-93
2023/10/08 02:19:52;;;;;;;;;;;;;;;;;;;;;
2023/10/08 02:22:29;;;;;;;;;;;;;;;;;;;;;
2023/10/08 02:25:08;;;;;;;35.30;10.43;;;;;;;18.68;100.00;101877.75;4999883;28;20112;-93
2023/10/08 02:28:49;;;;;;;41.47;11.45;;;;;;;18.94;100.00;101848.59;4988625;28;20061;-92
2023/10/08 02:35:01;;;;;;;;;;;;;;;;;;;;;
2023/10/08 02:38:20;;;;;;;28.77;8.73;;;;;;;18.53;100.00;101876.91;4955723;28;20041;-94
2023/10/08 02:41:24;;;;;;;29.67;8.60;;;;;;;18.04;100.00;101858.41;4980757;28;20456;-93
2023/10/08 02:47:57;;;;;;;;;;;;;;;;;;;;;
2023/10/08 02:51:34;;;;;;;23.95;6.78;;;;;;;17.60;100.00;101873.25;4928595;28;20038;-93
2023/10/08 03:06:42;;;;;;;11.98;4.53;;;;;;;16.72;100.00;101908.31;4818908;29;20102;-93
2023/10/08 03:09:31;;;;;;;11.48;4.43;;;;;;;16.92;100.00;101940.16;4911879;29;20031;-95
2023/10/08 03:13:13;;;;;;;12.48;4.75;;;;;;;16.31;100.00;101901.72;4952707;28;20523;-93
2023/10/08 03:19:45;;;;;;;10.40;4.53;;;;;;;16.18;100.00;101902.13;4946446;29;20067;-92
2023/10/08 03:22:20;;;;;;;12.85;4.63;;;;;;;15.80;100.00;101920.16;4995955;28;20092;-92
2023/10/08 03:24:49;;;;;;;9.90;4.40;;;;;;;16.09;100.00;101919.91;5030224;28;20559;-92
2023/10/08 03:27:21;;;;;;;8.60;4.25;;;;;;;16.25;100.00;101914.38;5046519;28;20036;-94
2023/10/08 03:33:10;;;;;;;;;;;;;;;;;;;;;
2023/10/08 03:36:31;;;;;;;;;;;;;;;;;;;;;
2023/10/08 03:43:33;;;;;;;7.50;2.70;;;;;;;15.79;100.00;101979.91;5047790;28;20163;-93
2023/10/08 03:46:41;;;;;;;8.73;3.08;;;;;;;15.56;100.00;101983.69;5071771;28;20123;-93
2023/10/08 03:49:25;;;;;;;8.23;2.53;;;;;;;15.36;100.00;101974.19;5041684;28;20115;-94
2023/10/08 03:52:01;;;;;;;7.93;2.45;;;;;;;15.37;100.00;101962.31;5061094;28;20059;-94
2023/10/08 03:54:35;;;;;;;7.63;2.70;;;;;;;15.27;100.00;101978.41;5062537;28;20028;-94
2023/10/08 03:57:01;;;;;;;6.45;2.53;;;;;;;15.27;100.00;101967.59;5082967;28;20040;-93
2023/10/08 04:00:12;;;;;;;7.63;2.60;;;;;;;15.80;100.00;101952.63;5100502;28;20016;-94
2023/10/08 04:02:55;;;;;;;9.02;3.38;;;;;;;15.83;100.00;101941.28;5078941;28;20016;-94
2023/10/08 04:08:46;;;;;;;7.13;3.40;;;;;;;15.61;100.00;101916.13;5068714;28;20485;-95
2023/10/08 04:12:08;;;;;;;11.07;3.53;;;;;;;15.86;100.00;101929.94;5066780;28;20040;-94
2023/10/08 04:14:08;;;;;;;6.40;2.60;;;;;;;15.61;100.00;101940.47;5073315;28;20084;-95
2023/10/08 04:16:38;;;;;;;8.65;2.85;;;;;;;15.55;100.00;101939.56;5067551;28;20004;-94
2023/10/08 04:19:09;;;;;;;5.35;3.00;;;;;;;15.35;100.00;101942.81;5083923;28;20016;-94
2023/10/08 04:21:42;;;;;;;6.40;2.78;;;;;;;15.15;100.00;101964.19;5093345;28;20020;-93
2023/10/08 04:24:14;;;;;;;7.57;3.28;;;;;;;15.23;100.00;101969.16;5083873;28;20048;-94
2023/10/08 04:26:40;;;;;;;7.72;4.00;;;;;;;15.36;100.00;101981.50;5084110;28;20016;-93
2023/10/08 04:29:16;;;;;;;8.25;3.38;;;;;;;15.51;100.00;101983.59;5067103;28;20092;-91
2023/10/08 04:32:01;;;;;;;6.65;2.80;;;;;;;15.40;100.00;101971.84;5103956;28;20033;-91
2023/10/08 04:34:46;;;;;;;6.05;2.05;;;;;;;15.56;100.00;101989.09;5085214;28;20008;-91
2023/10/08 04:37:21;;;;;;;4.10;2.28;;;;;;;15.19;100.00;101970.72;5084941;28;20016;-92
2023/10/08 04:39:59;;;;;;;7.97;2.70;;;;;;;15.26;100.00;101962.44;5068034;28;20020;-92
2023/10/08 04:42:30;;;;;;;5.47;2.28;;;;;;;15.26;100.00;101960.53;5084697;28;20093;-91
2023/10/08 04:45:00;;;;;;;4.78;2.33;;;;;;;15.19;100.00;101986.94;5085500;28;20015;-91
2023/10/08 04:47:32;;;;;;;6.47;2.80;;;;;;;15.16;100.00;101975.81;5067320;28;20032;-91
2023/10/08 04:49:58;;;;;;;;;;;;;;;15.20;100.00;101995.84;5085360;28;20072;-93
2023/10/08 04:52:33;;;;;;;6.00;2.40;;;;;;;15.31;100.00;102009.31;5084265;28;19904;-91
2023/10/08 04:55:12;;;;;;;6.72;2.90;;;;;;;15.65;100.00;102014.66;5067746;28;20104;-93
2023/10/08 04:57:41;;;;;;;8.98;2.83;;;;;;;15.31;100.00;102006.59;5081716;28;20051;-92
2023/10/08 05:00:14;;;;;;;6.93;3.45;;;;;;;15.23;100.00;101987.25;5084620;28;20004;-93
2023/10/08 05:03:03;;;;;;;11.90;3.92;;;;;;;15.70;100.00;101995.78;5068555;28;20035;-92
2023/10/08 05:05:38;;;;;;;7.68;3.78;;;;;;;15.86;100.00;102011.13;5084859;28;20012;-94
2023/10/08 05:14:02;;;;;;;9.35;4.30;;;;;;;15.05;100.00;101978.34;5079971;28;20020;-93
2023/10/08 05:16:44;;;;;;;11.38;5.32;;;;;;;14.94;100.00;101994.66;5061074;28;20089;-94
2023/10/08 05:19:26;;;;;;;9.00;4.75;;;;;;;14.99;100.00;102008.25;5062360;28;20086;-92
2023/10/08 05:22:01;;;;;;;6.22;3.08;;;;;;;15.10;100.00;102015.44;5045075;28;20043;-94
2023/10/08 05:24:38;;;;;;;5.68;3.03;;;;;;;15.00;100.00;102015.31;5061998;28;20059;-93
2023/10/08 05:30:15;;;;;;;4.40;2.80;;;;;;;15.06;100.00;101988.06;5079822;28;20115;-93
2023/10/08 05:38:15;;;;;;;4.78;2.97;;;;;;;15.04;100.00;102011.03;5080777;28;20027;-93
2023/10/08 05:51:45;;;;;;;2.42;1.42;;;;;;;15.21;100.00;102038.88;5087002;28;20024;-92
2023/10/08 06:02:39;;;;;;;2.35;1.10;;;;;;;14.95;100.00;102055.75;5097403;28;20024;-93
2023/10/08 11:48:28;;;;;;;4.90;1.30;;;;;;;19.17;100.00;102170.91;6100599;22;20135;-90
2023/10/08 11:50:57;;;;;;;5.80;1.35;;;;;;;-145.67;100.00;66521.78;5018680;28;20487;-89
2023/10/08 11:53:26;;;;;;;9.13;1.50;;;;;;;19.00;100.00;102160.28;5032169;28;20025;-88
2023/10/08 11:55:56;;;;;;;5.35;1.40;;;;;;;19.20;100.00;102156.75;5054235;28;20063;-89
2023/10/08 11:58:37;;;;;;;6.47;1.35;;;;;;;19.17;100.00;102164.66;5034664;28;20028;-89
2023/10/08 12:01:24;;;;;;;3.53;1.58;;;;;;;19.05;100.00;102148.56;5049878;28;20036;-88
2023/10/08 12:03:50;;;;;;;3.10;1.77;;;;;;;19.01;100.00;102153.75;5076129;28;20028;-88
2023/10/08 12:06:21;;;;;;;6.07;2.20;;;;;;;18.85;100.00;102140.41;5076455;28;20066;-92
2023/10/08 12:08:49;;;;;;;5.07;1.75;;;;;;;18.86;100.00;102137.41;5077814;28;20146;-91
2023/10/08 12:11:15;;;;;;;6.50;2.10;;;;;;;18.82;100.00;102127.34;5077688;28;20051;-91
2023/10/08 12:13:47;;;;;;;5.38;1.83;;;;;;;18.75;100.00;102127.59;5088415;28;20023;-90
2023/10/08 12:16:20;;;;;;;5.45;1.88;;;;;;;18.58;100.00;102125.09;5067474;28;20036;-91
2023/10/08 12:18:53;;;;;;;5.78;1.73;;;;;;;18.68;100.00;102124.31;5079048;28;20114;-90
2023/10/08 12:21:32;;;;;;;8.77;1.83;;;;;;;18.65;100.00;102120.25;5064199;28;20096;-91
2023/10/08 12:23:58;;;;;;;5.38;2.20;;;;;;;18.98;100.00;102108.06;5061187;28;20535;-91
2023/10/08 12:26:24;;;;;;;5.10;1.85;;;;;;;-145.67;100.00;66521.78;5077162;28;20425;-91
2023/10/08 12:28:50;;;;;;;6.47;2.20;;;;;;;19.43;100.00;102114.59;5095731;28;20031;-91
2023/10/08 12:31:23;;;;;;;3.65;1.88;;;;;;;19.81;100.00;102117.84;5061092;28;20028;-93
2023/10/08 12:33:53;;;;;;;5.75;2.30;;;;;;;19.85;100.00;102097.13;5062442;28;20040;-93
2023/10/08 12:36:26;;;;;;;7.80;3.05;;;;;;;19.87;100.00;102112.09;5063800;28;20038;-88
2023/10/08 12:39:08;;;;;;;9.73;4.88;;;;;;;19.88;100.00;102121.91;5092907;28;20097;-88
2023/10/08 12:41:37;;;;;;;8.35;3.17;;;;;;;-145.67;100.00;66521.78;5079778;28;20032;-91
2023/10/08 12:44:07;;;;;;;4.15;2.28;;;;;;;19.98;100.00;102128.41;5057619;28;20025;-89
2023/10/08 12:46:33;;;;;;;4.20;2.47;;;;;;;-145.67;100.00;66521.78;5057704;28;20094;-91
2023/10/08 12:49:01;;;;;;;6.35;2.85;;;;;;;19.74;100.00;102120.03;5057101;28;20036;-91
2023/10/08 12:51:31;;;;;;;6.65;2.55;;;;;;;19.47;100.00;102112.16;5057615;28;20044;-91
2023/10/08 12:54:03;;;;;;;7.80;3.10;;;;;;;19.31;100.00;102101.28;5060487;28;20103;-91
2023/10/08 12:56:35;;;;;;;5.53;2.10;;;;;;;19.26;100.00;102103.97;5060859;28;20028;-91
2023/10/08 12:59:04;;;;;;;;;;;;;;;19.21;100.00;102120.28;5061582;28;20027;-90
2023/10/08 13:01:29;;;;;;;5.05;2.45;;;;;;;19.15;100.00;102107.81;5061145;28;20411;-91
2023/10/08 13:04:00;;;;;;;5.65;2.63;;;;;;;19.23;100.00;102098.28;5080993;28;20028;-90
2023/10/08 13:06:30;;;;;;;5.82;2.17;;;;;;;-145.67;100.00;66521.78;5065168;28;20028;-91
2023/10/08 13:08:59;;;;;;;8.20;2.85;;;;;;;18.94;100.00;102117.03;5064870;28;20063;-90
2023/10/08 13:11:29;;;;;;;6.03;3.25;;;;;;;-145.67;100.00;66521.78;5064362;28;20032;-90
2023/10/08 13:13:56;;;;;;;8.55;3.30;;;;;;;-145.67;100.00;66521.78;5064709;28;20016;-91
2023/10/08 13:16:23;;;;;;;10.23;3.80;;;;;;;-145.67;100.00;66521.78;5075386;28;20122;-91
2023/10/08 13:18:49;;;;;;;7.85;3.45;;;;;;;-145.67;100.00;66521.78;5051142;28;20032;-88
2023/10/08 13:21:16;;;;;;;9.70;3.95;;;;;;;-145.67;100.00;66521.78;5059366;28;20588;-88
2023/10/08 13:23:42;;;;;;;8.00;3.25;;;;;;;-145.67;100.00;66521.78;5044592;28;20108;-88
2023/10/08 13:26:08;;;;;;;6.75;2.95;;;;;;;-145.67;100.00;66521.78;5079345;28;20028;-87
2023/10/08 13:28:35;;;;;;;7.05;3.95;;;;;;;-145.67;100.00;66521.78;5097441;28;20030;-87
2023/10/08 13:31:09;;;;;;;7.53;3.72;;;;;;;-145.67;100.00;66521.78;5099251;28;20044;-87
2023/10/08 13:33:39;;;;;;;11.82;3.55;;;;;;;-145.67;100.00;66521.78;5076775;28;20042;-88
2023/10/08 13:36:08;;;;;;;9.00;3.38;;;;;;;-145.67;100.00;66521.78;5097090;28;20017;-88
2023/10/08 13:38:35;;;;;;;7.40;2.88;;;;;;;-145.67;100.00;66521.78;5097434;28;20095;-88
2023/10/08 13:41:05;;;;;;;6.10;2.80;;;;;;;-145.67;100.00;66521.78;5087230;28;20513;-90
2023/10/08 13:43:39;;;;;;;6.55;2.90;;;;;;;-145.67;100.00;66521.78;5073994;28;20020;-91
2023/10/08 13:46:12;;;;;;;10.40;3.78;;;;;;;-145.67;100.00;66521.78;5086337;28;20089;-92
2023/10/08 13:48:39;;;;;;;9.60;3.88;;;;;;;-145.67;100.00;66521.78;5082619;28;20055;-92
2023/10/08 13:51:13;;;;;;;10.38;3.88;;;;;;;-145.67;100.00;66521.78;5080146;28;20050;-90
2023/10/08 13:53:52;;;;;;;7.55;3.33;;;;;;;-145.67;100.00;66521.78;5092161;28;20060;-91
2023/10/08 13:56:20;;;;;;;8.15;3.60;;;;;;;-145.67;100.00;66521.78;5068113;28;20051;-92
2023/10/08 13:58:49;;;;;;;6.85;3.42;;;;;;;-145.67;100.00;66521.78;5066746;28;20035;-90
2023/10/08 14:01:21;;;;;;;8.38;3.55;;;;;;;-145.67;100.00;66521.78;5071793;28;20070;-90
2023/10/08 14:03:48;;;;;;;10.73;5.00;;;;;;;-145.67;100.00;66521.78;5047518;28;20099;-91
2023/10/08 14:06:17;;;;;;;13.48;5.32;;;;;;;-145.67;100.00;66521.78;5048295;28;20076;-92
2023/10/08 14:08:54;;;;;;;11.35;4.90;;;;;;;-145.67;100.00;66521.78;5074973;28;20024;-91
2023/10/08 14:11:23;;;;;;;13.20;6.00;;;;;;;-145.67;100.00;66521.78;5064565;28;20067;-91
2023/10/08 14:13:52;;;;;;;12.90;6.95;;;;;;;-145.67;100.00;66521.78;5061378;28;20038;-92
2023/10/08 14:16:28;;;;;;;14.20;5.82;;;;;;;-145.67;100.00;66521.78;5079111;28;20051;-91
2023/10/08 14:18:55;;;;;;;12.80;5.75;;;;;;;-145.67;100.00;66521.78;5046212;28;20028;-91
2023/10/08 14:21:24;;;;;;;13.55;5.13;;;;;;;-145.67;100.00;66521.78;5061208;28;20020;-92
2023/10/08 14:23:53;;;;;;;14.05;5.07;;;;;;;-145.67;100.00;66521.78;5057313;28;20513;-91
2023/10/08 14:26:22;;;;;;;14.48;5.88;;;;;;;-145.67;100.00;66521.78;5100384;28;20496;-91
2023/10/08 14:28:56;;;;;;;16.77;7.20;;;;;;;-145.67;100.00;66521.78;5066814;28;20055;-91
2023/10/08 14:31:22;;;;;;;13.85;6.20;;;;;;;-145.67;100.00;66521.78;5085600;28;20024;-91
2023/10/08 14:45:10;;;;;;;13.02;6.65;;;;;;;-145.67;100.00;66521.78;5081486;28;20485;-90
2023/10/08 14:47:35;;;;;;;16.02;6.13;;;;;;;-145.67;100.00;66521.78;5078600;28;20516;-89
2023/10/08 14:50:04;;;;;;;15.25;5.72;;;;;;;-145.67;100.00;66521.78;5077781;28;20028;-89
2023/10/08 14:52:31;;;;;;;15.00;5.65;;;;;;;-145.67;100.00;66521.78;5078615;28;20027;-90
2023/10/08 14:54:56;;;;;;;11.90;4.85;;;;;;;-145.67;100.00;66521.78;5078159;28;20035;-89
2023/10/08 14:57:26;;;;;;;14.98;6.30;;;;;;;-145.67;100.00;66521.78;5064477;28;20030;-90
2023/10/08 14:59:56;;;;;;;11.73;5.85;;;;;;;-145.67;100.00;66521.78;5065993;28;20024;-90
2023/10/08 15:02:22;;;;;;;10.95;5.72;;;;;;;-145.67;100.00;66521.78;5079548;28;20020;-91
2023/10/08 15:04:50;;;;;;;10.85;5.43;;;;;;;-145.67;100.00;66521.78;5078770;28;20038;-89
2023/10/08 15:07:17;;;;;;;14.50;5.70;;;;;;;-145.67;100.00;66521.78;5080715;28;20032;-89
2023/10/08 15:09:44;;;;;;;12.73;5.68;;;;;;;-145.67;100.00;66521.78;5079537;28;20032;-89
2023/10/08 15:12:16;;;;;;;12.25;5.80;;;;;;;-145.67;100.00;66521.78;5072110;28;20036;-90
2023/10/08 15:14:42;;;;;;;;;;;;;;;-145.67;100.00;66521.78;5081692;28;20478;-91
2023/10/08 15:17:08;;;;;;;13.38;6.20;;;;;;;-145.67;100.00;66521.78;5064572;28;19912;-90
2023/10/08 15:19:34;;;;;;;12.65;6.05;;;;;;;-145.67;100.00;66521.78;5063738;28;20030;-90
2023/10/08 15:22:00;;;;;;;13.80;6.50;;;;;;;-145.67;100.00;66521.78;5096230;28;20076;-89
2023/10/08 15:24:26;;;;;;;14.25;7.10;;;;;;;-145.67;100.00;66521.78;5095540;28;20034;-90
2023/10/08 15:26:53;;;;;;;13.50;6.88;;;;;;;-145.67;100.00;66521.78;5061351;28;20111;-89
2023/10/08 15:29:20;;;;;;;20.02;7.57;;;;;;;-145.67;100.00;66521.78;5078287;28;20466;-89
2023/10/08 15:31:49;;;;;;;15.35;6.72;;;;;;;-145.67;100.00;66521.78;5078211;28;20040;-90
2023/10/08 15:34:15;;;;;;;14.68;6.95;;;;;;;-145.67;100.00;66521.78;5078002;28;20035;-90
2023/10/08 15:36:41;;;;;;;14.70;7.10;;;;;;;-145.67;100.00;66521.78;5077834;28;20023;-89
2023/10/08 15:39:11;;;;;;;18.92;9.38;;;;;;;-145.67;100.00;66521.78;5095695;28;20036;-90
2023/10/08 15:41:37;;;;;;;21.85;10.38;;;;;;;-145.67;100.00;66521.78;5079018;28;20030;-90
2023/10/08 15:44:03;;;;;;;18.73;11.60;;;;;;;-145.67;100.00;66521.78;5095916;28;20016;-90
2023/10/08 15:46:29;;;;;;;22.50;12.30;;;;;;;-145.67;100.00;66521.78;5078709;28;20040;-89
2023/10/08 15:48:54;;;;;;;26.75;13.85;;;;;;;-145.67;100.00;66521.78;5095729;28;20063;-89
2023/10/08 15:51:20;;;;;;;23.70;12.13;;;;;;;-145.67;100.00;66521.78;5096104;28;20087;-89
2023/10/08 15:53:46;;;;;;;22.13;11.93;;;;;;;-145.67;100.00;66521.78;5061196;28;20024;-90
2023/10/08 15:56:12;;;;;;;24.48;11.30;;;;;;;-145.67;100.00;66521.78;5077465;28;20024;-89
2023/10/08 15:58:37;;;;;;;24.05;11.65;;;;;;;-145.67;100.00;66521.78;5078336;28;20505;-90
2023/10/08 16:01:04;;;;;;;24.17;12.05;;;;;;;-145.67;100.00;66521.78;5077297;28;20032;-90
2023/10/08 16:03:29;;;;;;;22.27;11.80;;;;;;;-145.67;100.00;66521.78;5060560;28;20055;-90
2023/10/08 16:05:55;;;;;;;20.55;10.88;;;;;;;-145.67;100.00;66521.78;5077867;28;20052;-90
2023/10/08 16:08:21;;;;;;;22.23;12.02;;;;;;;-145.67;100.00;66521.78;5077379;28;20032;-90
2023/10/08 16:10:47;;;;;;;22.25;11.90;;;;;;;-145.67;100.00;66521.78;5077784;28;20385;-89
2023/10/08 16:13:13;;;;;;;25.17;12.50;;;;;;;-145.67;100.00;66521.78;5078059;28;20111;-90
2023/10/08 16:15:40;;;;;;;24.90;12.23;;;;;;;-145.67;100.00;66521.78;5078110;28;20069;-90
2023/10/08 16:18:06;;;;;;;25.30;12.63;;;;;;;-145.67;100.00;66521.78;5062045;28;20023;-91
2023/10/08 16:20:32;;;;;;;24.42;13.43;;;;;;;-145.67;100.00;66521.78;5078676;28;20020;-90
2023/10/08 16:22:58;;;;;;;35.65;15.43;;;;;;;-145.67;100.00;66521.78;5061478;28;20024;-90
2023/10/08 16:25:24;;;;;;;30.55;15.25;;;;;;;-145.67;100.00;66521.78;5100745;28;20028;-91
2023/10/08 16:27:52;;;;;;;30.63;15.38;;;;;;;-145.67;100.00;66521.78;5089203;28;20068;-90
2023/10/08 16:30:23;;;;;;;27.83;15.50;;;;;;;-145.67;100.00;66521.78;5084447;28;20436;-88
2023/10/08 16:32:49;;;;;;;29.77;16.00;;;;;;;-145.67;100.00;66521.78;5079732;28;20020;-91
2023/10/08 16:38:56;;;;;;;29.85;16.50;;;;;;;-145.67;100.00;66521.78;5115632;28;20035;-90
2023/10/08 16:41:22;;;;;;;34.97;15.63;;;;;;;-145.67;100.00;66521.78;5077874;28;20032;-90
2023/10/08 16:43:50;;;;;;;28.67;14.80;;;;;;;-145.67;100.00;66521.78;5060281;28;20476;-90
2023/10/08 16:46:16;;;;;;;29.85;14.05;;;;;;;-145.67;100.00;66521.78;5060862;28;20061;-90
2023/10/08 16:48:44;;;;;;;27.33;13.63;;;;;;;-145.67;100.00;66521.78;5078603;28;20028;-91
2023/10/08 16:51:09;;;;;;;24.83;12.55;;;;;;;-145.67;100.00;66521.78;5077999;28;20028;-90
2023/10/08 16:53:35;;;;;;;26.85;12.90;;;;;;;-145.67;100.00;66521.78;5077674;28;20047;-92
2023/10/08 16:56:00;;;;;;;26.92;13.10;;;;;;;-145.67;100.00;66521.78;5077350;28;20051;-91
2023/10/08 16:58:29;;;;;;;23.33;12.25;;;;;;;-145.67;100.00;66521.78;5078433;28;20381;-91
2023/10/08 17:00:55;;;;;;;26.42;11.30;;;;;;;-145.67;100.00;66521.78;5097060;28;20450;-91
2023/10/08 17:03:21;;;;;;;22.58;11.77;;;;;;;-145.67;100.00;66521.78;5099378;28;20072;-91
2023/10/08 17:05:48;;;;;;;24.27;11.80;;;;;;;-145.67;100.00;66521.78;5083411;28;20049;-90
2023/10/08 17:08:14;;;;;;;25.02;12.27;;;;;;;-145.67;100.00;66521.78;5099857;28;20034;-90
2023/10/08 17:10:39;;;;;;;23.83;11.40;;;;;;;-145.67;100.00;66521.78;5099488;28;20028;-92
2023/10/08 17:13:05;;;;;;;19.48;10.95;;;;;;;-145.67;100.00;66521.78;5090526;28;20048;-90
2023/10/08 17:15:30;;;;;;;23.00;11.43;;;;;;;-145.67;100.00;66521.78;5096578;28;20024;-91
2023/10/08 17:17:56;;;;;;;25.45;11.10;;;;;;;-145.67;100.00;66521.78;5077798;28;20458;-89
2023/10/08 17:20:23;;;;;;;22.83;10.57;;;;;;;-145.67;100.00;66521.78;5094886;28;20032;-88
2023/10/08 17:22:49;;;;;;;27.42;11.45;;;;;;;-145.67;100.00;66521.78;5094025;28;20031;-91
2023/10/08 17:25:14;;;;;;;21.70;10.77;;;;;;;-145.67;100.00;66521.78;5094677;28;20020;-91
2023/10/08 17:27:49;;;;;;;21.00;10.65;;;;;;;-145.67;100.00;66521.78;5076932;28;20028;-93
2023/10/08 17:38:59;;;;;;;22.30;9.57;;;;;;;-145.67;100.00;66521.78;5043421;28;20386;-92
2023/10/08 17:41:29;;;;;;;27.25;11.75;;;;;;;-145.67;100.00;66521.78;5079766;28;20028;-93
2023/10/08 17:47:12;;;;;;;;;;;;;;;;;;;;;
2023/10/08 17:50:04;;;;;;;;;;;;;;;-145.67;100.00;66521.78;5085296;28;20042;-94
2023/10/08 17:52:30;;;;;;;26.65;10.57;;;;;;;-145.67;100.00;66521.78;5084130;28;19958;-95
2023/10/08 17:54:58;;;;;;;20.65;10.05;;;;;;;-145.67;100.00;66521.78;5083278;28;20028;-95
2023/10/08 17:57:25;;;;;;;24.05;11.15;;;;;;;-145.67;100.00;66521.78;5066401;28;20027;-94
2023/10/08 21:09:45;;;;;;;57.28;31.38;;;;;;;-145.67;100.00;66521.78;6098759;22;20029;-94
2023/10/08 21:12:32;;;;;;;57.10;30.13;;;;;;;-145.67;100.00;66521.78;5022915;28;20059;-96
2023/10/08 21:15:11;;;;;;;60.10;31.10;;;;;;;-145.67;100.00;66521.78;5038119;28;20035;-95
2023/10/08 21:18:21;;;;;;;;;;;;;;;;;;;;;
2023/10/08 21:21:03;;;;;;;53.42;28.70;;;;;;;-145.67;100.00;66521.78;5040188;28;20048;-94
2023/10/08 21:28:04;;;;;;;49.13;30.45;;;;;;;-145.67;100.00;66521.78;5046490;28;20386;-93
2023/10/08 21:31:08;;;;;;;55.65;28.48;;;;;;;-145.67;100.00;66521.78;4939136;29;20035;-94
2023/10/08 21:34:38;;;;;;;;;;;;;;;;;;;;;
2023/10/08 21:44:54;;;;;;;;;;;;;;;;;;;;;
2023/10/08 21:47:59;;;;;;;52.80;30.98;;;;;;;-145.67;100.00;66521.78;5007936;28;20048;-93
2023/10/08 21:51:28;;;;;;;57.83;32.65;;;;;;;-145.67;100.00;66521.78;5027027;28;20506;-94
2023/10/08 22:14:02;;;;;;;;;;;;;;;;;;;;;
2023/10/08 22:35:44;;;;;;;;;;;;;;;;;;;;;
2023/10/08 22:39:23;;;;;;;;;;;;;;;;;;;;;
2023/10/08 22:45:53;;;;;;;31.27;16.20;;;;;;;-145.67;100.00;66521.78;4958403;28;20047;-94
2023/10/08 22:49:33;;;;;;;32.40;16.15;;;;;;;-145.67;100.00;66521.78;4928457;28;20133;-94
2023/10/08 22:53:16;;;;;;;32.97;15.32;;;;;;;-145.67;100.00;66521.78;4866998;29;20195;-94
2023/10/08 22:56:31;;;;;;;34.55;15.13;;;;;;;-145.67;100.00;66521.78;4852061;29;20584;-95
2023/10/08 23:03:23;;;;;;;;;;;;;;;;;;;;;
2023/10/08 23:15:33;;;;;;;33.38;15.55;;;;;;;-145.67;100.00;66521.78;4844208;29;20479;-94
2023/10/08 23:19:21;;;;;;;;;;;;;;;;;;;;;
2023/10/08 23:26:24;;;;;;;34.00;15.75;;;;;;;-145.67;100.00;66521.78;4829393;29;20034;-94
2023/10/08 23:29:45;;;;;;;;;;;;;;;;;;;;;
2023/10/08 23:41:15;;;;;;;30.17;14.48;;;;;;;-145.67;100.00;66521.78;4800010;29;20164;-94
2023/10/08 23:45:26;;;;;;;;;;;;;;;;;;;;;
2023/10/08 23:48:29;;;;;;;;;;;;;;;;;;;;;
2023/10/08 23:52:23;;;;;;;28.75;12.95;;;;;;;-145.67;100.00;66521.78;4901348;29;20147;-94
2023/10/08 23:56:26;;;;;;;30.75;12.15;;;;;;;-145.67;100.00;66521.78;4883241;29;20060;-95
2023/10/08 23:59:13;;;;;;;;;;;;;;;;;;;;;
